Time;durP1;ratioP1;P1;durP2;ratioP2;P2;SDS_P1;SDS_P2;PMS_P1;PMS_P2;Temp;Humidity;BMP_temperature;BMP_pressure;BME280_temperature;BME280_humidity;BME280_pressure;Samples;Min_cycle;Max_cycle;Signal;HPM_P1;HPM_P2
2022/10/26 03:26:33;;;;;;;33.00;18.50;;;;;;;7.70;97.69;99744.80;435896;1288;142077;-65
2022/10/26 03:36:38;;;;;;;20.10;14.50;;;;;;;7.66;97.39;99751.94;436763;1282;143817;-65
2022/10/26 03:46:44;;;;;;;33.60;11.80;;;;;;;7.71;97.66;99758.16;431727;1281;143443;-65
2022/10/26 03:56:51;;;;;;;21.50;12.50;;;;;;;7.74;97.69;99765.38;425651;1289;143691;-65
2022/10/26 04:06:59;;;;;;;16.60;10.70;;;;;;;7.70;98.37;99770.76;430680;1280;142036;-65
2022/10/26 04:17:05;;;;;;;23.40;12.60;;;;;;;7.68;98.71;99766.82;419287;1275;141978;-64
2022/10/26 04:27:11;;;;;;;15.20;11.70;;;;;;;7.67;98.92;99763.40;420396;1276;142264;-65
2022/10/26 04:37:17;;;;;;;23.20;12.40;;;;;;;7.67;99.13;99769.14;429899;1276;143270;-65
2022/10/26 04:47:22;;;;;;;18.40;12.10;;;;;;;7.66;99.37;99777.58;434365;1280;142841;-67
2022/10/26 04:57:28;;;;;;;17.50;12.70;;;;;;;7.66;99.27;99775.67;433038;1274;154781;-65
2022/10/26 05:07:34;;;;;;;19.50;12.10;;;;;;;7.64;99.44;99776.48;424337;1283;142844;-65
2022/10/26 05:17:39;;;;;;;21.00;13.40;;;;;;;7.59;99.58;99780.86;423945;1282;142142;-71
2022/10/26 05:27:46;;;;;;;18.10;13.70;;;;;;;7.59;99.47;99789.05;427382;1281;142552;-71
2022/10/26 05:37:52;;;;;;;27.00;13.50;;;;;;;7.60;99.52;99799.64;433667;1282;142680;-71
2022/10/26 05:47:58;;;;;;;23.30;14.60;;;;;;;7.66;99.73;99820.06;436019;1281;142437;-70
2022/10/26 05:58:12;;;;;;;19.00;11.50;;;;;;;7.79;99.84;99826.09;436653;1282;141813;-71
2022/10/26 06:08:18;;;;;;;24.30;13.40;;;;;;;7.92;99.92;99833.29;436679;1281;142911;-72
2022/10/26 06:18:34;;;;;;;19.30;14.50;;;;;;;8.10;99.91;99844.30;427687;1285;143083;-71
2022/10/26 06:28:47;;;;;;;28.30;15.10;;;;;;;8.28;100.00;99849.83;436823;1287;143721;-72
2022/10/26 06:38:59;;;;;;;19.40;13.00;;;;;;;8.48;99.94;99851.11;436017;1281;144220;-72
2022/10/26 06:49:13;;;;;;;32.30;14.10;;;;;;;8.60;99.95;99855.95;436791;1275;142352;-70
2022/10/26 06:59:31;;;;;;;21.90;13.70;;;;;;;8.82;99.98;99866.84;435285;1282;143629;-71
2022/10/26 07:09:37;;;;;;;34.80;17.60;;;;;;;9.00;99.79;99871.15;436329;1281;198409;-71
2022/10/26 07:19:43;;;;;;;25.10;17.40;;;;;;;9.08;99.76;99875.13;436822;1281;142995;-72
2022/10/26 07:29:49;;;;;;;27.70;18.70;;;;;;;9.25;99.73;99884.16;436033;1281;143033;-71
2022/10/26 07:39:55;;;;;;;28.70;17.30;;;;;;;9.47;99.83;99893.14;436779;1281;143637;-70
2022/10/26 07:50:00;;;;;;;25.40;15.40;;;;;;;9.70;99.35;99902.34;435000;1282;142752;-70
2022/10/26 08:00:09;;;;;;;25.20;14.90;;;;;;;9.88;98.72;99907.14;433119;1281;144343;-70
2022/10/26 08:10:15;;;;;;;21.50;14.90;;;;;;;10.01;97.92;99905.36;436752;1281;143261;-71
2022/10/26 08:20:21;;;;;;;18.10;14.00;;;;;;;10.22;97.63;99904.50;436804;1281;145031;-70
2022/10/26 08:30:27;;;;;;;14.00;11.40;;;;;;;10.59;97.14;99908.02;426367;1277;209534;-66
2022/10/26 08:40:34;;;;;;;20.20;14.90;;;;;;;10.84;96.32;99914.61;436760;1281;142671;-65
2022/10/26 08:50:46;;;;;;;25.30;17.90;;;;;;;11.07;96.26;99915.84;435976;1284;142859;-65
2022/10/26 09:00:53;;;;;;;16.90;13.10;;;;;;;11.22;95.23;99925.98;433075;1280;143728;-64
2022/10/26 09:11:07;;;;;;;19.40;16.10;;;;;;;11.25;95.08;99934.77;436661;1288;144224;-65
2022/10/26 09:21:25;;;;;;;24.60;18.90;;;;;;;11.44;94.65;99939.39;436036;1281;142893;-65
2022/10/26 09:31:32;;;;;;;22.60;17.40;;;;;;;11.67;94.52;99954.23;436747;1282;142596;-65
2022/10/26 09:41:44;;;;;;;29.50;20.70;;;;;;;11.97;94.10;99959.79;435981;1289;143438;-65
2022/10/26 09:51:49;;;;;;;20.10;16.60;;;;;;;12.12;93.61;99969.39;436762;1281;143130;-65
2022/10/26 10:01:55;;;;;;;19.00;14.40;;;;;;;12.44;93.66;99964.51;431111;1281;143274;-65
2022/10/26 10:12:03;;;;;;;19.30;15.40;;;;;;;12.90;93.16;99964.98;419769;1281;147636;-65
2022/10/26 10:22:21;;;;;;;13.50;12.10;;;;;;;13.23;92.48;99972.42;424697;1275;143290;-65
2022/10/26 10:32:26;;;;;;;;;;;;;;;13.50;91.97;99966.36;420165;1275;161446;-65
2022/10/26 10:42:35;;;;;;;15.60;12.20;;;;;;;13.99;91.21;99954.46;421953;1278;129745;-65
2022/10/26 10:52:41;;;;;;;13.30;12.00;;;;;;;14.38;89.68;99950.77;436713;1281;200413;-65
2022/10/26 11:03:31;;;;;;;13.10;11.40;;;;;;;14.19;88.95;99944.92;432185;1282;143218;-65
2022/10/26 11:13:40;;;;;;;13.00;11.50;;;;;;;14.03;88.67;99942.35;436736;1274;144321;-64
2022/10/26 11:23:50;;;;;;;12.30;10.50;;;;;;;13.98;88.31;99940.23;435977;1277;143002;-65
2022/10/26 11:34:11;;;;;;;14.80;11.20;;;;;;;14.12;88.35;99941.05;433574;1280;143450;-66
2022/10/26 11:44:23;;;;;;;12.20;11.00;;;;;;;14.22;87.70;99940.48;431291;1281;142555;-65
2022/10/26 11:54:34;;;;;;;17.60;11.20;;;;;;;14.38;87.53;99938.60;434950;1284;146141;-65
2022/10/26 12:04:42;;;;;;;11.60;7.70;;;;;;;14.73;86.86;99931.41;429257;1282;143373;-65
2022/10/26 12:14:50;;;;;;;;;;;;;;;14.98;85.67;99941.92;429912;1282;200209;-66
2022/10/26 12:25:19;;;;;;;6.50;5.90;;;;;;;15.21;84.92;99949.48;431933;1281;129258;-65
2022/10/26 12:35:49;;;;;;;6.80;6.00;;;;;;;15.49;83.18;99944.33;433662;1274;147082;-66
2022/10/26 12:46:44;;;;;;;9.10;5.50;;;;;;;15.51;82.08;99940.29;436681;1278;143747;-66
2022/10/26 12:56:56;;;;;;;5.10;3.80;;;;;;;15.41;80.70;99942.10;432249;1282;144575;-65
2022/10/26 13:07:23;;;;;;;12.40;4.40;;;;;;;15.28;79.93;99940.80;428334;1278;156724;-66
2022/10/26 13:17:32;;;;;;;9.50;4.00;;;;;;;15.26;79.37;99943.11;435961;1284;142161;-66
2022/10/26 13:27:57;;;;;;;8.60;4.60;;;;;;;15.47;78.83;99940.73;428230;1278;141239;-66
2022/10/26 13:38:10;;;;;;;8.10;4.60;;;;;;;15.64;77.78;99938.52;436726;1288;142851;-65
2022/10/26 13:48:19;;;;;;;5.60;3.40;;;;;;;15.53;77.10;99938.38;430950;1281;142667;-66
2022/10/26 13:58:31;;;;;;;5.30;3.00;;;;;;;15.43;76.56;99946.52;436762;1284;152761;-65
2022/10/26 14:08:40;;;;;;;10.60;3.40;;;;;;;15.33;76.21;99953.52;430155;1274;142392;-66
2022/10/26 14:18:46;;;;;;;7.20;3.10;;;;;;;15.15;76.09;99952.42;436757;1281;144961;-66
2022/10/26 14:28:54;;;;;;;8.10;3.70;;;;;;;14.87;75.98;99944.52;436700;1282;143516;-65
2022/10/26 14:39:06;;;;;;;8.70;3.50;;;;;;;14.61;76.31;99951.50;436010;1281;142638;-66
2022/10/26 14:49:20;;;;;;;8.80;3.70;;;;;;;14.30;76.64;99952.58;430925;1277;142104;-66
2022/10/26 14:59:27;;;;;;;12.40;4.30;;;;;;;13.97;77.00;99957.73;435937;1282;198284;-63
2022/10/26 15:09:39;;;;;;;7.20;3.70;;;;;;;13.61;77.59;99969.83;430823;1281;143230;-63
2022/10/26 15:19:45;;;;;;;7.20;4.60;;;;;;;13.21;78.30;99970.46;422536;1281;142227;-63
2022/10/26 15:30:07;;;;;;;19.30;7.70;;;;;;;12.74;79.04;99968.33;419201;1275;147070;-62
2022/10/26 15:40:14;;;;;;;11.20;7.70;;;;;;;12.22;80.04;99978.19;420799;1279;142840;-63
2022/10/26 15:50:21;;;;;;;26.50;14.00;;;;;;;11.72;80.97;99982.52;434835;1289;142191;-63
2022/10/26 16:00:27;;;;;;;14.80;8.90;;;;;;;11.30;81.89;99997.58;436200;1281;210929;-63
2022/10/26 16:10:34;;;;;;;60.60;13.00;;;;;;;10.92;82.74;100002.23;436207;1282;142942;-63
2022/10/26 16:20:40;;;;;;;32.10;12.70;;;;;;;10.58;83.57;100008.59;435977;1282;145737;-64
2022/10/26 16:30:46;;;;;;;25.10;12.40;;;;;;;10.21;83.92;100013.72;436748;1274;145769;-63
2022/10/26 16:40:59;;;;;;;26.20;10.30;;;;;;;9.91;84.49;100015.59;431050;1275;146791;-64
2022/10/26 16:51:11;;;;;;;32.10;12.00;;;;;;;9.64;85.19;100026.46;435993;1283;144717;-64
2022/10/26 17:01:18;;;;;;;23.40;12.80;;;;;;;9.35;85.47;100031.09;436586;1282;144533;-64
2022/10/26 17:11:23;;;;;;;;;;;;;;;9.07;85.80;100041.04;436016;1284;202367;-64
2022/10/26 17:21:33;;;;;;;23.90;14.60;;;;;;;8.85;86.37;100052.30;436990;1284;130523;-63
2022/10/26 17:31:39;;;;;;;32.80;15.40;;;;;;;8.63;86.68;100058.75;436696;1282;145582;-63
2022/10/26 17:41:45;;;;;;;44.50;19.00;;;;;;;8.52;87.33;100068.89;429109;1275;143439;-63
2022/10/26 17:51:51;;;;;;;40.30;22.10;;;;;;;8.53;87.68;100074.23;422839;1281;143013;-62
2022/10/26 18:01:57;;;;;;;31.10;25.80;;;;;;;8.52;88.93;100079.51;426752;1281;143348;-65
2022/10/26 18:12:03;;;;;;;36.80;30.50;;;;;;;8.56;90.10;100086.85;435944;1281;143239;-64
2022/10/26 18:22:08;;;;;;;42.80;25.90;;;;;;;8.59;91.15;100089.86;436657;1282;144587;-64
2022/10/26 18:32:14;;;;;;;43.00;24.50;;;;;;;8.44;90.87;100103.58;428565;1280;146584;-64
2022/10/26 18:42:20;;;;;;;44.90;22.00;;;;;;;8.30;91.29;100107.23;424402;1281;145391;-64
2022/10/26 18:52:26;;;;;;;49.10;25.00;;;;;;;8.08;90.69;100112.05;420069;1275;143273;-64
2022/10/26 19:02:32;;;;;;;41.60;29.00;;;;;;;7.81;90.77;100111.83;420478;1281;142929;-64
2022/10/26 19:12:38;;;;;;;50.20;26.40;;;;;;;7.62;90.89;100116.30;420601;1275;194416;-63
2022/10/26 19:22:43;;;;;;;48.30;25.40;;;;;;;7.39;90.93;100130.19;420064;1280;144251;-63
2022/10/26 19:32:49;;;;;;;57.10;28.30;;;;;;;7.16;90.94;100142.07;420344;1281;142986;-63
2022/10/26 19:42:55;;;;;;;44.30;30.90;;;;;;;6.98;91.27;100159.02;421357;1282;187227;-63
2022/10/26 19:53:02;;;;;;;49.00;28.80;;;;;;;6.90;92.05;100166.96;420718;1281;141264;-63
2022/10/26 20:03:09;;;;;;;41.70;28.00;;;;;;;6.78;92.23;100172.80;420045;1281;143376;-63
2022/10/26 20:13:15;;;;;;;45.40;29.50;;;;;;;6.67;92.49;100177.94;419880;1280;141567;-62
2022/10/26 20:23:21;;;;;;;48.90;30.70;;;;;;;6.64;93.15;100182.23;420388;1281;142728;-64
2022/10/26 20:33:28;;;;;;;56.20;31.90;;;;;;;6.46;92.70;100188.79;420500;1279;211781;-65
2022/10/26 20:43:35;;;;;;;50.30;31.20;;;;;;;6.29;92.63;100191.70;420593;1280;143289;-64
2022/10/26 20:53:48;;;;;;;53.10;33.10;;;;;;;6.11;92.39;100197.19;420492;1282;143618;-64
2022/10/26 21:03:55;;;;;;;72.10;43.50;;;;;;;6.01;92.94;100204.14;420673;1287;142971;-64
2022/10/26 21:14:02;;;;;;;64.40;39.30;;;;;;;5.94;93.14;100209.57;420386;1284;145475;-64
2022/10/26 21:24:08;;;;;;;82.90;48.20;;;;;;;5.80;92.75;100210.59;420632;1283;187977;-63
2022/10/26 21:34:14;;;;;;;54.90;36.80;;;;;;;5.84;94.02;100204.70;422925;1287;142436;-64
2022/10/26 21:44:20;;;;;;;58.20;37.00;;;;;;;5.85;94.24;100207.30;420696;1281;142704;-63
2022/10/26 21:54:45;;;;;;;52.60;35.80;;;;;;;5.71;94.18;100223.22;422456;1278;143179;-64
2022/10/26 22:04:51;;;;;;;55.40;34.50;;;;;;;5.50;93.65;100231.02;421077;1278;144517;-63
2022/10/26 22:14:57;;;;;;;46.30;33.60;;;;;;;5.30;93.35;100219.52;421519;1281;145922;-64
2022/10/26 22:25:04;;;;;;;43.50;33.70;;;;;;;5.32;94.28;100213.91;420794;1280;144154;-63
2022/10/26 22:35:10;;;;;;;55.40;36.60;;;;;;;5.23;94.33;100211.59;420980;1275;147685;-63
2022/10/26 22:45:34;;;;;;;44.30;34.00;;;;;;;5.15;94.50;100205.23;420011;1272;142734;-65
2022/10/26 22:55:42;;;;;;;56.40;37.20;;;;;;;5.07;94.11;100220.59;420757;1272;142349;-63
2022/10/26 23:05:47;;;;;;;;;;;;;;;4.94;93.62;100220.11;420383;1272;142644;-64
2022/10/26 23:15:53;;;;;;;43.30;29.80;;;;;;;4.88;93.63;100227.05;420859;1279;128946;-64
2022/10/26 23:26:02;;;;;;;43.30;31.20;;;;;;;4.78;93.33;100222.33;421715;1272;142363;-63
2022/10/26 23:36:08;;;;;;;43.00;31.50;;;;;;;4.73;93.58;100221.41;420330;1279;146618;-63
2022/10/26 23:46:14;;;;;;;40.10;31.30;;;;;;;4.74;93.84;100233.55;420704;1275;144122;-63
2022/10/26 23:56:21;;;;;;;43.20;31.70;;;;;;;4.72;93.70;100233.44;421294;1281;141975;-63
